sensor_id;sensor_type;location;lat;lon;timestamp;P1;durP1;ratioP1;P2;durP2;ratioP2
32812;SDS011;19162;48.254;11.454;2023-03-01T00:00:34;17.30;;;15.83;;
32812;SDS011;19162;48.254;11.454;2023-03-01T00:03:34;17.08;;;15.60;;
32812;SDS011;19162;48.254;11.454;2023-03-01T00:06:34;16.45;;;15.10;;
32812;SDS011;19162;48.254;11.454;2023-03-01T00:09:35;17.83;;;16.33;;
32812;SDS011;19162;48.254;11.454;2023-03-01T00:12:36;18.45;;;16.77;;
32812;SDS011;19162;48.254;11.454;2023-03-01T00:15:39;18.02;;;16.42;;
32812;SDS011;19162;48.254;11.454;2023-03-01T00:18:40;16.35;;;14.98;;
32812;SDS011;19162;48.254;11.454;2023-03-01T00:21:40;17.90;;;16.20;;
32812;SDS011;19162;48.254;11.454;2023-03-01T00:24:41;17.60;;;16.10;;
32812;SDS011;19162;48.254;11.454;2023-03-01T00:27:41;18.63;;;17.02;;
32812;SDS011;19162;48.254;11.454;2023-03-01T00:30:41;18.30;;;16.73;;
32812;SDS011;19162;48.254;11.454;2023-03-01T00:33:41;16.17;;;14.77;;
32812;SDS011;19162;48.254;11.454;2023-03-01T00:36:41;16.75;;;15.30;;
32812;SDS011;19162;48.254;11.454;2023-03-01T00:39:42;16.43;;;15.13;;
32812;SDS011;19162;48.254;11.454;2023-03-01T00:42:42;17.48;;;15.98;;
32812;SDS011;19162;48.254;11.454;2023-03-01T00:45:42;17.10;;;15.73;;
32812;SDS011;19162;48.254;11.454;2023-03-01T00:48:43;17.80;;;16.23;;
32812;SDS011;19162;48.254;11.454;2023-03-01T00:51:43;17.15;;;15.65;;
32812;SDS011;19162;48.254;11.454;2023-03-01T00:54:43;17.38;;;15.98;;
32812;SDS011;19162;48.254;11.454;2023-03-01T00:57:43;16.92;;;15.48;;
32812;SDS011;19162;48.254;11.454;2023-03-01T01:00:44;18.03;;;16.40;;
32812;SDS011;19162;48.254;11.454;2023-03-01T01:03:45;17.73;;;16.13;;
32812;SDS011;19162;48.254;11.454;2023-03-01T01:06:45;16.40;;;14.98;;
32812;SDS011;19162;48.254;11.454;2023-03-01T01:09:46;17.92;;;16.30;;
32812;SDS011;19162;48.254;11.454;2023-03-01T01:12:46;17.47;;;15.87;;
32812;SDS011;19162;48.254;11.454;2023-03-01T01:15:46;17.33;;;15.70;;
32812;SDS011;19162;48.254;11.454;2023-03-01T01:18:46;17.83;;;16.20;;
32812;SDS011;19162;48.254;11.454;2023-03-01T01:21:47;18.17;;;16.57;;
32812;SDS011;19162;48.254;11.454;2023-03-01T01:24:48;16.85;;;15.45;;
32812;SDS011;19162;48.254;11.454;2023-03-01T01:27:48;18.23;;;16.73;;
32812;SDS011;19162;48.254;11.454;2023-03-01T01:30:48;18.90;;;17.30;;
32812;SDS011;19162;48.254;11.454;2023-03-01T01:33:49;18.45;;;16.80;;
32812;SDS011;19162;48.254;11.454;2023-03-01T01:36:52;18.17;;;16.65;;
32812;SDS011;19162;48.254;11.454;2023-03-01T01:39:55;16.90;;;15.48;;
32812;SDS011;19162;48.254;11.454;2023-03-01T01:42:55;17.27;;;15.93;;
32812;SDS011;19162;48.254;11.454;2023-03-01T01:45:59;17.80;;;16.30;;
32812;SDS011;19162;48.254;11.454;2023-03-01T01:49:02;18.40;;;16.70;;
32812;SDS011;19162;48.254;11.454;2023-03-01T01:52:05;17.77;;;16.17;;
32812;SDS011;19162;48.254;11.454;2023-03-01T01:58:08;17.90;;;16.20;;
32812;SDS011;19162;48.254;11.454;2023-03-01T02:01:09;15.93;;;14.43;;
32812;SDS011;19162;48.254;11.454;2023-03-01T02:04:09;17.67;;;16.27;;
32812;SDS011;19162;48.254;11.454;2023-03-01T02:07:14;18.13;;;16.57;;
32812;SDS011;19162;48.254;11.454;2023-03-01T02:10:15;16.70;;;15.23;;
32812;SDS011;19162;48.254;11.454;2023-03-01T02:13:15;15.95;;;14.60;;
32812;SDS011;19162;48.254;11.454;2023-03-01T02:16:16;17.10;;;15.50;;
32812;SDS011;19162;48.254;11.454;2023-03-01T02:19:28;17.15;;;15.68;;
32812;SDS011;19162;48.254;11.454;2023-03-01T02:22:32;17.48;;;15.90;;
32812;SDS011;19162;48.254;11.454;2023-03-01T02:28:33;16.77;;;15.35;;
32812;SDS011;19162;48.254;11.454;2023-03-01T02:31:34;17.83;;;16.20;;
32812;SDS011;19162;48.254;11.454;2023-03-01T02:34:44;17.27;;;15.85;;
32812;SDS011;19162;48.254;11.454;2023-03-01T02:37:44;17.80;;;16.40;;
32812;SDS011;19162;48.254;11.454;2023-03-01T02:40:45;17.27;;;15.97;;
32812;SDS011;19162;48.254;11.454;2023-03-01T02:43:45;17.83;;;16.33;;
32812;SDS011;19162;48.254;11.454;2023-03-01T02:46:46;16.40;;;15.10;;
32812;SDS011;19162;48.254;11.454;2023-03-01T02:49:47;15.98;;;14.57;;
32812;SDS011;19162;48.254;11.454;2023-03-01T02:53:01;16.90;;;15.50;;
32812;SDS011;19162;48.254;11.454;2023-03-01T02:56:04;17.23;;;15.73;;
32812;SDS011;19162;48.254;11.454;2023-03-01T02:59:04;16.40;;;15.00;;
32812;SDS011;19162;48.254;11.454;2023-03-01T03:02:05;17.85;;;16.40;;
32812;SDS011;19162;48.254;11.454;2023-03-01T03:05:08;17.85;;;16.35;;
32812;SDS011;19162;48.254;11.454;2023-03-01T03:08:09;17.73;;;16.33;;
32812;SDS011;19162;48.254;11.454;2023-03-01T03:11:09;18.05;;;16.52;;
32812;SDS011;19162;48.254;11.454;2023-03-01T03:14:10;17.23;;;15.75;;
32812;SDS011;19162;48.254;11.454;2023-03-01T03:17:12;17.33;;;15.82;;
32812;SDS011;19162;48.254;11.454;2023-03-01T03:20:13;17.27;;;15.68;;
32812;SDS011;19162;48.254;11.454;2023-03-01T03:23:19;17.67;;;16.17;;
32812;SDS011;19162;48.254;11.454;2023-03-01T03:26:19;16.77;;;15.27;;
32812;SDS011;19162;48.254;11.454;2023-03-01T03:29:19;17.85;;;16.35;;
32812;SDS011;19162;48.254;11.454;2023-03-01T03:32:20;17.27;;;15.63;;
32812;SDS011;19162;48.254;11.454;2023-03-01T03:35:21;18.08;;;16.38;;
32812;SDS011;19162;48.254;11.454;2023-03-01T03:38:21;17.25;;;15.85;;
32812;SDS011;19162;48.254;11.454;2023-03-01T03:41:22;17.80;;;16.02;;
32812;SDS011;19162;48.254;11.454;2023-03-01T03:44:22;16.42;;;14.93;;
32812;SDS011;19162;48.254;11.454;2023-03-01T03:47:22;17.50;;;16.00;;
32812;SDS011;19162;48.254;11.454;2023-03-01T03:50:22;17.05;;;15.68;;
32812;SDS011;19162;48.254;11.454;2023-03-01T03:53:23;18.50;;;16.90;;
32812;SDS011;19162;48.254;11.454;2023-03-01T03:56:23;16.88;;;15.35;;
32812;SDS011;19162;48.254;11.454;2023-03-01T03:59:25;17.90;;;16.00;;
32812;SDS011;19162;48.254;11.454;2023-03-01T04:02:26;18.17;;;16.47;;
32812;SDS011;19162;48.254;11.454;2023-03-01T04:05:26;17.60;;;16.00;;
32812;SDS011;19162;48.254;11.454;2023-03-01T04:08:27;16.10;;;14.77;;
32812;SDS011;19162;48.254;11.454;2023-03-01T04:11:27;18.42;;;16.58;;
32812;SDS011;19162;48.254;11.454;2023-03-01T04:14:27;18.30;;;16.70;;
32812;SDS011;19162;48.254;11.454;2023-03-01T04:17:27;18.50;;;16.63;;
32812;SDS011;19162;48.254;11.454;2023-03-01T04:20:28;17.60;;;16.20;;
32812;SDS011;19162;48.254;11.454;2023-03-01T04:23:29;17.42;;;15.82;;
32812;SDS011;19162;48.254;11.454;2023-03-01T04:26:29;18.00;;;16.38;;
32812;SDS011;19162;48.254;11.454;2023-03-01T04:29:29;17.58;;;16.00;;
32812;SDS011;19162;48.254;11.454;2023-03-01T04:32:29;18.27;;;16.67;;
32812;SDS011;19162;48.254;11.454;2023-03-01T04:35:30;18.02;;;16.50;;
32812;SDS011;19162;48.254;11.454;2023-03-01T04:38:30;17.98;;;16.27;;
32812;SDS011;19162;48.254;11.454;2023-03-01T04:41:30;18.35;;;16.85;;
32812;SDS011;19162;48.254;11.454;2023-03-01T04:44:31;17.08;;;15.63;;
32812;SDS011;19162;48.254;11.454;2023-03-01T04:47:31;17.75;;;16.25;;
32812;SDS011;19162;48.254;11.454;2023-03-01T04:50:32;19.90;;;18.00;;
32812;SDS011;19162;48.254;11.454;2023-03-01T04:53:32;18.83;;;17.13;;
32812;SDS011;19162;48.254;11.454;2023-03-01T04:56:32;18.48;;;16.83;;
32812;SDS011;19162;48.254;11.454;2023-03-01T04:59:33;19.13;;;17.42;;
32812;SDS011;19162;48.254;11.454;2023-03-01T05:02:33;19.17;;;17.27;;
32812;SDS011;19162;48.254;11.454;2023-03-01T05:05:34;19.37;;;17.87;;
32812;SDS011;19162;48.254;11.454;2023-03-01T05:08:36;20.05;;;18.15;;
32812;SDS011;19162;48.254;11.454;2023-03-01T05:11:39;18.48;;;16.98;;
32812;SDS011;19162;48.254;11.454;2023-03-01T05:14:40;19.02;;;17.35;;
32812;SDS011;19162;48.254;11.454;2023-03-01T05:17:40;17.85;;;16.25;;
32812;SDS011;19162;48.254;11.454;2023-03-01T05:20:41;19.40;;;17.60;;
32812;SDS011;19162;48.254;11.454;2023-03-01T05:23:41;20.25;;;18.35;;
32812;SDS011;19162;48.254;11.454;2023-03-01T05:26:42;19.00;;;17.40;;
32812;SDS011;19162;48.254;11.454;2023-03-01T05:29:42;17.63;;;16.13;;
32812;SDS011;19162;48.254;11.454;2023-03-01T05:32:43;19.50;;;17.70;;
32812;SDS011;19162;48.254;11.454;2023-03-01T05:35:44;20.30;;;18.30;;
32812;SDS011;19162;48.254;11.454;2023-03-01T05:38:44;19.58;;;17.73;;
32812;SDS011;19162;48.254;11.454;2023-03-01T05:41:44;19.00;;;17.30;;
32812;SDS011;19162;48.254;11.454;2023-03-01T05:44:45;19.92;;;18.10;;
32812;SDS011;19162;48.254;11.454;2023-03-01T05:47:45;19.37;;;17.53;;
32812;SDS011;19162;48.254;11.454;2023-03-01T05:50:46;19.70;;;17.83;;
32812;SDS011;19162;48.254;11.454;2023-03-01T05:53:47;18.10;;;16.50;;
32812;SDS011;19162;48.254;11.454;2023-03-01T05:56:47;19.73;;;17.70;;
32812;SDS011;19162;48.254;11.454;2023-03-01T05:59:47;18.53;;;16.87;;
32812;SDS011;19162;48.254;11.454;2023-03-01T06:02:48;19.10;;;17.60;;
32812;SDS011;19162;48.254;11.454;2023-03-01T06:05:48;18.42;;;16.90;;
32812;SDS011;19162;48.254;11.454;2023-03-01T06:08:48;19.15;;;17.48;;
32812;SDS011;19162;48.254;11.454;2023-03-01T06:11:48;19.75;;;17.90;;
32812;SDS011;19162;48.254;11.454;2023-03-01T06:14:48;18.38;;;16.77;;
32812;SDS011;19162;48.254;11.454;2023-03-01T06:17:49;20.00;;;18.20;;
32812;SDS011;19162;48.254;11.454;2023-03-01T06:20:53;18.08;;;16.50;;
32812;SDS011;19162;48.254;11.454;2023-03-01T06:23:53;19.20;;;17.45;;
32812;SDS011;19162;48.254;11.454;2023-03-01T06:26:53;19.57;;;17.77;;
32812;SDS011;19162;48.254;11.454;2023-03-01T06:29:54;20.40;;;18.58;;
32812;SDS011;19162;48.254;11.454;2023-03-01T06:32:54;15.88;;;14.38;;
32812;SDS011;19162;48.254;11.454;2023-03-01T06:36:00;17.45;;;15.70;;
32812;SDS011;19162;48.254;11.454;2023-03-01T06:39:00;17.77;;;16.08;;
32812;SDS011;19162;48.254;11.454;2023-03-01T06:42:00;18.83;;;17.10;;
32812;SDS011;19162;48.254;11.454;2023-03-01T06:45:01;18.30;;;16.70;;
32812;SDS011;19162;48.254;11.454;2023-03-01T06:48:05;19.63;;;17.83;;
32812;SDS011;19162;48.254;11.454;2023-03-01T06:51:06;19.77;;;17.98;;
32812;SDS011;19162;48.254;11.454;2023-03-01T06:54:06;20.03;;;18.33;;
32812;SDS011;19162;48.254;11.454;2023-03-01T06:57:06;19.02;;;17.23;;
32812;SDS011;19162;48.254;11.454;2023-03-01T07:00:07;19.33;;;17.70;;
32812;SDS011;19162;48.254;11.454;2023-03-01T07:03:08;19.88;;;18.17;;
32812;SDS011;19162;48.254;11.454;2023-03-01T07:06:08;18.50;;;16.92;;
32812;SDS011;19162;48.254;11.454;2023-03-01T07:09:08;18.73;;;17.02;;
32812;SDS011;19162;48.254;11.454;2023-03-01T07:12:08;19.88;;;18.17;;
32812;SDS011;19162;48.254;11.454;2023-03-01T07:15:09;19.73;;;17.95;;
32812;SDS011;19162;48.254;11.454;2023-03-01T07:18:09;18.90;;;17.20;;
32812;SDS011;19162;48.254;11.454;2023-03-01T07:21:11;20.17;;;18.13;;
32812;SDS011;19162;48.254;11.454;2023-03-01T07:24:12;19.13;;;17.33;;
32812;SDS011;19162;48.254;11.454;2023-03-01T07:27:12;20.85;;;18.90;;
32812;SDS011;19162;48.254;11.454;2023-03-01T07:30:12;19.92;;;18.15;;
32812;SDS011;19162;48.254;11.454;2023-03-01T07:33:12;20.37;;;18.63;;
32812;SDS011;19162;48.254;11.454;2023-03-01T07:36:12;20.63;;;18.73;;
32812;SDS011;19162;48.254;11.454;2023-03-01T07:39:12;21.23;;;19.38;;
32812;SDS011;19162;48.254;11.454;2023-03-01T07:42:13;20.00;;;18.20;;
32812;SDS011;19162;48.254;11.454;2023-03-01T07:45:13;20.97;;;19.17;;
32812;SDS011;19162;48.254;11.454;2023-03-01T07:48:13;19.42;;;17.73;;
32812;SDS011;19162;48.254;11.454;2023-03-01T07:51:14;20.67;;;18.90;;
32812;SDS011;19162;48.254;11.454;2023-03-01T07:54:14;21.75;;;19.95;;
32812;SDS011;19162;48.254;11.454;2023-03-01T07:57:14;19.15;;;17.58;;
32812;SDS011;19162;48.254;11.454;2023-03-01T08:00:15;20.63;;;18.73;;
32812;SDS011;19162;48.254;11.454;2023-03-01T08:03:15;20.63;;;18.65;;
32812;SDS011;19162;48.254;11.454;2023-03-01T08:06:16;20.70;;;18.75;;
32812;SDS011;19162;48.254;11.454;2023-03-01T08:09:17;20.65;;;18.90;;
32812;SDS011;19162;48.254;11.454;2023-03-01T08:12:17;20.60;;;18.80;;
32812;SDS011;19162;48.254;11.454;2023-03-01T08:15:17;21.13;;;19.20;;
32812;SDS011;19162;48.254;11.454;2023-03-01T08:18:19;21.25;;;19.35;;
32812;SDS011;19162;48.254;11.454;2023-03-01T08:21:19;21.13;;;19.10;;
32812;SDS011;19162;48.254;11.454;2023-03-01T08:24:19;19.92;;;18.13;;
32812;SDS011;19162;48.254;11.454;2023-03-01T08:27:19;21.87;;;19.87;;
32812;SDS011;19162;48.254;11.454;2023-03-01T08:30:19;21.52;;;19.52;;
32812;SDS011;19162;48.254;11.454;2023-03-01T08:33:20;21.08;;;19.30;;
32812;SDS011;19162;48.254;11.454;2023-03-01T08:36:20;22.00;;;20.00;;
32812;SDS011;19162;48.254;11.454;2023-03-01T08:39:21;22.20;;;20.10;;
32812;SDS011;19162;48.254;11.454;2023-03-01T08:42:21;23.23;;;21.05;;
32812;SDS011;19162;48.254;11.454;2023-03-01T08:45:21;20.33;;;18.52;;
32812;SDS011;19162;48.254;11.454;2023-03-01T08:48:21;21.23;;;19.00;;
32812;SDS011;19162;48.254;11.454;2023-03-01T08:51:22;21.85;;;19.90;;
32812;SDS011;19162;48.254;11.454;2023-03-01T08:54:22;21.67;;;19.67;;
32812;SDS011;19162;48.254;11.454;2023-03-01T08:57:22;21.10;;;19.15;;
32812;SDS011;19162;48.254;11.454;2023-03-01T09:00:22;20.77;;;18.95;;
32812;SDS011;19162;48.254;11.454;2023-03-01T09:03:23;21.73;;;19.63;;
32812;SDS011;19162;48.254;11.454;2023-03-01T09:06:24;21.60;;;19.70;;
32812;SDS011;19162;48.254;11.454;2023-03-01T09:09:24;21.00;;;19.20;;
32812;SDS011;19162;48.254;11.454;2023-03-01T09:12:24;22.42;;;20.42;;
32812;SDS011;19162;48.254;11.454;2023-03-01T09:15:25;21.73;;;19.60;;
32812;SDS011;19162;48.254;11.454;2023-03-01T09:18:25;22.27;;;20.23;;
32812;SDS011;19162;48.254;11.454;2023-03-01T09:21:25;22.05;;;19.92;;
32812;SDS011;19162;48.254;11.454;2023-03-01T09:24:25;22.60;;;20.52;;
32812;SDS011;19162;48.254;11.454;2023-03-01T09:27:25;21.30;;;19.37;;
32812;SDS011;19162;48.254;11.454;2023-03-01T09:30:25;21.77;;;19.87;;
32812;SDS011;19162;48.254;11.454;2023-03-01T09:33:26;20.27;;;18.33;;
32812;SDS011;19162;48.254;11.454;2023-03-01T09:36:27;21.42;;;19.52;;
32812;SDS011;19162;48.254;11.454;2023-03-01T09:39:27;21.67;;;19.77;;
32812;SDS011;19162;48.254;11.454;2023-03-01T09:42:27;20.25;;;18.63;;
32812;SDS011;19162;48.254;11.454;2023-03-01T09:45:35;20.05;;;18.25;;
32812;SDS011;19162;48.254;11.454;2023-03-01T09:48:41;21.27;;;19.25;;
32812;SDS011;19162;48.254;11.454;2023-03-01T09:51:43;21.98;;;19.88;;
32812;SDS011;19162;48.254;11.454;2023-03-01T09:54:46;21.70;;;19.70;;
32812;SDS011;19162;48.254;11.454;2023-03-01T09:57:50;22.73;;;20.83;;
32812;SDS011;19162;48.254;11.454;2023-03-01T10:00:53;21.60;;;19.85;;
32812;SDS011;19162;48.254;11.454;2023-03-01T10:07:16;23.30;;;21.20;;
32812;SDS011;19162;48.254;11.454;2023-03-01T10:10:23;23.73;;;21.63;;
32812;SDS011;19162;48.254;11.454;2023-03-01T10:13:34;23.75;;;21.70;;
32812;SDS011;19162;48.254;11.454;2023-03-01T10:19:53;23.15;;;20.92;;
32812;SDS011;19162;48.254;11.454;2023-03-01T10:22:55;25.00;;;22.52;;
32812;SDS011;19162;48.254;11.454;2023-03-01T10:29:07;24.00;;;21.70;;
32812;SDS011;19162;48.254;11.454;2023-03-01T10:32:09;24.40;;;22.05;;
32812;SDS011;19162;48.254;11.454;2023-03-01T10:35:21;23.45;;;21.45;;
32812;SDS011;19162;48.254;11.454;2023-03-01T10:38:22;24.40;;;22.25;;
32812;SDS011;19162;48.254;11.454;2023-03-01T10:41:22;22.80;;;20.60;;
32812;SDS011;19162;48.254;11.454;2023-03-01T10:44:35;25.02;;;22.83;;
32812;SDS011;19162;48.254;11.454;2023-03-01T10:47:35;25.08;;;22.65;;
32812;SDS011;19162;48.254;11.454;2023-03-01T10:50:35;25.33;;;23.02;;
32812;SDS011;19162;48.254;11.454;2023-03-01T10:53:38;24.45;;;22.35;;
32812;SDS011;19162;48.254;11.454;2023-03-01T10:56:50;24.98;;;22.75;;
32812;SDS011;19162;48.254;11.454;2023-03-01T10:59:51;24.75;;;22.45;;
32812;SDS011;19162;48.254;11.454;2023-03-01T11:12:13;25.03;;;22.90;;
32812;SDS011;19162;48.254;11.454;2023-03-01T11:15:22;24.45;;;22.05;;
32812;SDS011;19162;48.254;11.454;2023-03-01T11:18:23;24.35;;;22.13;;
32812;SDS011;19162;48.254;11.454;2023-03-01T11:21:24;24.87;;;22.83;;
32812;SDS011;19162;48.254;11.454;2023-03-01T11:24:30;24.98;;;22.85;;
32812;SDS011;19162;48.254;11.454;2023-03-01T11:27:32;23.65;;;21.65;;
32812;SDS011;19162;48.254;11.454;2023-03-01T11:33:47;23.35;;;21.30;;
32812;SDS011;19162;48.254;11.454;2023-03-01T11:36:54;23.92;;;21.73;;
32812;SDS011;19162;48.254;11.454;2023-03-01T11:43:02;24.00;;;21.83;;
32812;SDS011;19162;48.254;11.454;2023-03-01T11:52:16;21.30;;;19.40;;
32812;SDS011;19162;48.254;11.454;2023-03-01T11:58:36;22.95;;;20.85;;
32812;SDS011;19162;48.254;11.454;2023-03-01T12:04:52;24.00;;;21.80;;
32812;SDS011;19162;48.254;11.454;2023-03-01T12:08:09;23.77;;;21.75;;
32812;SDS011;19162;48.254;11.454;2023-03-01T12:18:05;23.05;;;21.05;;
32812;SDS011;19162;48.254;11.454;2023-03-01T12:21:21;21.48;;;19.50;;
32812;SDS011;19162;48.254;11.454;2023-03-01T12:37:03;23.42;;;21.20;;
32812;SDS011;19162;48.254;11.454;2023-03-01T12:43:34;21.17;;;19.35;;
32812;SDS011;19162;48.254;11.454;2023-03-01T12:46:46;22.85;;;20.75;;
32812;SDS011;19162;48.254;11.454;2023-03-01T12:50:54;21.25;;;19.38;;
32812;SDS011;19162;48.254;11.454;2023-03-01T12:53:26;22.58;;;20.65;;
32812;SDS011;19162;48.254;11.454;2023-03-01T12:56:29;23.00;;;20.85;;
32812;SDS011;19162;48.254;11.454;2023-03-01T12:59:39;23.73;;;21.55;;
32812;SDS011;19162;48.254;11.454;2023-03-01T13:02:54;21.83;;;19.90;;
32812;SDS011;19162;48.254;11.454;2023-03-01T13:09:04;23.43;;;21.30;;
32812;SDS011;19162;48.254;11.454;2023-03-01T13:15:27;23.27;;;21.20;;
32812;SDS011;19162;48.254;11.454;2023-03-01T13:18:28;22.33;;;20.30;;
32812;SDS011;19162;48.254;11.454;2023-03-01T13:21:30;22.70;;;20.70;;
32812;SDS011;19162;48.254;11.454;2023-03-01T13:27:34;22.25;;;20.40;;
32812;SDS011;19162;48.254;11.454;2023-03-01T13:33:40;22.05;;;20.10;;
32812;SDS011;19162;48.254;11.454;2023-03-01T13:36:48;20.95;;;19.10;;
32812;SDS011;19162;48.254;11.454;2023-03-01T13:39:48;22.00;;;19.85;;
32812;SDS011;19162;48.254;11.454;2023-03-01T13:42:49;23.00;;;20.65;;
32812;SDS011;19162;48.254;11.454;2023-03-01T13:45:49;21.70;;;19.80;;
32812;SDS011;19162;48.254;11.454;2023-03-01T13:48:51;22.38;;;20.27;;
32812;SDS011;19162;48.254;11.454;2023-03-01T13:51:51;21.15;;;19.23;;
32812;SDS011;19162;48.254;11.454;2023-03-01T13:54:52;21.75;;;19.83;;
32812;SDS011;19162;48.254;11.454;2023-03-01T13:57:57;21.33;;;19.55;;
32812;SDS011;19162;48.254;11.454;2023-03-01T14:01:06;21.08;;;19.17;;
32812;SDS011;19162;48.254;11.454;2023-03-01T14:04:18;19.75;;;17.98;;
32812;SDS011;19162;48.254;11.454;2023-03-01T14:07:20;20.70;;;18.92;;
32812;SDS011;19162;48.254;11.454;2023-03-01T14:10:21;20.30;;;18.50;;
32812;SDS011;19162;48.254;11.454;2023-03-01T14:13:33;21.10;;;19.40;;
32812;SDS011;19162;48.254;11.454;2023-03-01T14:16:54;19.25;;;17.60;;
32812;SDS011;19162;48.254;11.454;2023-03-01T14:19:57;21.05;;;19.20;;
32812;SDS011;19162;48.254;11.454;2023-03-01T14:22:59;20.80;;;19.00;;
32812;SDS011;19162;48.254;11.454;2023-03-01T14:26:00;20.52;;;18.73;;
32812;SDS011;19162;48.254;11.454;2023-03-01T14:29:01;20.10;;;18.35;;
32812;SDS011;19162;48.254;11.454;2023-03-01T14:35:24;20.80;;;18.85;;
32812;SDS011;19162;48.254;11.454;2023-03-01T14:41:35;20.42;;;18.58;;
32812;SDS011;19162;48.254;11.454;2023-03-01T14:44:35;19.40;;;17.70;;
32812;SDS011;19162;48.254;11.454;2023-03-01T14:47:37;19.67;;;17.95;;
32812;SDS011;19162;48.254;11.454;2023-03-01T14:50:42;19.95;;;18.25;;
32812;SDS011;19162;48.254;11.454;2023-03-01T14:53:43;19.63;;;17.83;;
32812;SDS011;19162;48.254;11.454;2023-03-01T14:56:44;19.13;;;17.42;;
32812;SDS011;19162;48.254;11.454;2023-03-01T14:59:45;19.20;;;17.52;;
32812;SDS011;19162;48.254;11.454;2023-03-01T15:02:46;20.73;;;18.60;;
32812;SDS011;19162;48.254;11.454;2023-03-01T15:05:47;19.70;;;17.77;;
32812;SDS011;19162;48.254;11.454;2023-03-01T15:08:48;18.37;;;16.70;;
32812;SDS011;19162;48.254;11.454;2023-03-01T15:11:49;19.15;;;17.45;;
32812;SDS011;19162;48.254;11.454;2023-03-01T15:14:50;19.60;;;17.90;;
32812;SDS011;19162;48.254;11.454;2023-03-01T15:17:53;17.88;;;16.23;;
32812;SDS011;19162;48.254;11.454;2023-03-01T15:20:55;19.15;;;17.35;;
32812;SDS011;19162;48.254;11.454;2023-03-01T15:23:57;17.95;;;16.20;;
32812;SDS011;19162;48.254;11.454;2023-03-01T15:26:58;19.05;;;17.20;;
32812;SDS011;19162;48.254;11.454;2023-03-01T15:30:02;18.45;;;16.77;;
32812;SDS011;19162;48.254;11.454;2023-03-01T15:36:41;17.98;;;16.38;;
32812;SDS011;19162;48.254;11.454;2023-03-01T15:39:42;18.20;;;16.48;;
32812;SDS011;19162;48.254;11.454;2023-03-01T15:42:46;18.05;;;16.50;;
32812;SDS011;19162;48.254;11.454;2023-03-01T15:45:47;17.23;;;15.63;;
32812;SDS011;19162;48.254;11.454;2023-03-01T15:48:59;15.40;;;14.02;;
32812;SDS011;19162;48.254;11.454;2023-03-01T15:52:00;15.77;;;14.45;;
32812;SDS011;19162;48.254;11.454;2023-03-01T15:55:02;16.20;;;14.70;;
32812;SDS011;19162;48.254;11.454;2023-03-01T15:58:04;16.77;;;15.07;;
32812;SDS011;19162;48.254;11.454;2023-03-01T16:01:11;15.73;;;14.38;;
32812;SDS011;19162;48.254;11.454;2023-03-01T16:04:13;15.85;;;14.52;;
32812;SDS011;19162;48.254;11.454;2023-03-01T16:07:20;16.23;;;14.63;;
32812;SDS011;19162;48.254;11.454;2023-03-01T16:10:20;15.40;;;14.10;;
32812;SDS011;19162;48.254;11.454;2023-03-01T16:13:20;15.15;;;13.75;;
32812;SDS011;19162;48.254;11.454;2023-03-01T16:16:21;15.53;;;14.03;;
32812;SDS011;19162;48.254;11.454;2023-03-01T16:19:22;15.27;;;13.80;;
32812;SDS011;19162;48.254;11.454;2023-03-01T16:22:22;16.05;;;14.45;;
32812;SDS011;19162;48.254;11.454;2023-03-01T16:25:24;15.55;;;14.10;;
32812;SDS011;19162;48.254;11.454;2023-03-01T16:28:25;16.73;;;14.82;;
32812;SDS011;19162;48.254;11.454;2023-03-01T16:31:26;15.85;;;14.30;;
32812;SDS011;19162;48.254;11.454;2023-03-01T16:34:27;15.98;;;14.48;;
32812;SDS011;19162;48.254;11.454;2023-03-01T16:37:27;15.18;;;13.77;;
32812;SDS011;19162;48.254;11.454;2023-03-01T16:40:27;15.02;;;13.52;;
32812;SDS011;19162;48.254;11.454;2023-03-01T16:43:28;15.45;;;13.95;;
32812;SDS011;19162;48.254;11.454;2023-03-01T16:46:29;15.75;;;14.23;;
32812;SDS011;19162;48.254;11.454;2023-03-01T16:49:29;16.47;;;14.77;;
32812;SDS011;19162;48.254;11.454;2023-03-01T16:52:29;15.38;;;14.02;;
32812;SDS011;19162;48.254;11.454;2023-03-01T16:55:29;15.00;;;13.60;;
32812;SDS011;19162;48.254;11.454;2023-03-01T16:58:29;15.02;;;13.40;;
32812;SDS011;19162;48.254;11.454;2023-03-01T17:01:30;15.75;;;13.77;;
32812;SDS011;19162;48.254;11.454;2023-03-01T17:04:37;14.98;;;13.52;;
32812;SDS011;19162;48.254;11.454;2023-03-01T17:07:37;15.30;;;13.80;;
32812;SDS011;19162;48.254;11.454;2023-03-01T17:10:38;16.23;;;14.73;;
32812;SDS011;19162;48.254;11.454;2023-03-01T17:13:38;15.53;;;13.93;;
32812;SDS011;19162;48.254;11.454;2023-03-01T17:16:38;14.85;;;12.80;;
32812;SDS011;19162;48.254;11.454;2023-03-01T17:19:39;16.70;;;14.95;;
32812;SDS011;19162;48.254;11.454;2023-03-01T17:22:41;17.65;;;13.68;;
32812;SDS011;19162;48.254;11.454;2023-03-01T17:25:44;14.38;;;12.98;;
32812;SDS011;19162;48.254;11.454;2023-03-01T17:28:44;12.80;;;11.60;;
32812;SDS011;19162;48.254;11.454;2023-03-01T17:31:50;13.55;;;12.40;;
32812;SDS011;19162;48.254;11.454;2023-03-01T17:34:50;13.97;;;12.70;;
32812;SDS011;19162;48.254;11.454;2023-03-01T17:37:51;14.75;;;13.45;;
32812;SDS011;19162;48.254;11.454;2023-03-01T17:40:51;16.37;;;14.87;;
32812;SDS011;19162;48.254;11.454;2023-03-01T17:43:51;16.37;;;14.87;;
32812;SDS011;19162;48.254;11.454;2023-03-01T17:46:54;17.63;;;16.13;;
32812;SDS011;19162;48.254;11.454;2023-03-01T17:49:54;18.15;;;16.52;;
32812;SDS011;19162;48.254;11.454;2023-03-01T17:52:55;19.03;;;17.53;;
32812;SDS011;19162;48.254;11.454;2023-03-01T17:55:59;19.92;;;18.05;;
32812;SDS011;19162;48.254;11.454;2023-03-01T17:58:59;20.35;;;18.38;;
32812;SDS011;19162;48.254;11.454;2023-03-01T18:02:00;19.40;;;17.50;;
32812;SDS011;19162;48.254;11.454;2023-03-01T18:05:00;19.33;;;17.63;;
32812;SDS011;19162;48.254;11.454;2023-03-01T18:08:01;20.38;;;18.60;;
32812;SDS011;19162;48.254;11.454;2023-03-01T18:11:01;21.63;;;19.70;;
32812;SDS011;19162;48.254;11.454;2023-03-01T18:14:01;20.97;;;18.77;;
32812;SDS011;19162;48.254;11.454;2023-03-01T18:17:02;21.13;;;19.33;;
32812;SDS011;19162;48.254;11.454;2023-03-01T18:20:05;20.85;;;18.98;;
32812;SDS011;19162;48.254;11.454;2023-03-01T18:23:06;21.20;;;19.30;;
32812;SDS011;19162;48.254;11.454;2023-03-01T18:26:11;22.05;;;19.95;;
32812;SDS011;19162;48.254;11.454;2023-03-01T18:29:11;21.65;;;19.75;;
32812;SDS011;19162;48.254;11.454;2023-03-01T18:32:11;21.73;;;19.53;;
32812;SDS011;19162;48.254;11.454;2023-03-01T18:35:11;20.50;;;18.50;;
32812;SDS011;19162;48.254;11.454;2023-03-01T18:38:12;21.48;;;19.55;;
32812;SDS011;19162;48.254;11.454;2023-03-01T18:41:12;22.83;;;20.73;;
32812;SDS011;19162;48.254;11.454;2023-03-01T18:44:12;21.00;;;18.93;;
32812;SDS011;19162;48.254;11.454;2023-03-01T18:47:12;23.17;;;21.00;;
32812;SDS011;19162;48.254;11.454;2023-03-01T18:50:13;20.90;;;19.00;;
32812;SDS011;19162;48.254;11.454;2023-03-01T18:53:13;21.88;;;19.95;;
32812;SDS011;19162;48.254;11.454;2023-03-01T18:56:13;23.85;;;21.55;;